sensor_id;sensor_type;location;lat;lon;timestamp;temperature;humidity
6948;DHT22;3513;47.664;9.162;2023-03-04T00:01:42;2.60;99.90
6948;DHT22;3513;47.664;9.162;2023-03-04T00:04:08;2.60;99.90
6948;DHT22;3513;47.664;9.162;2023-03-04T00:06:34;2.50;99.90
6948;DHT22;3513;47.664;9.162;2023-03-04T00:09:00;2.40;99.90
6948;DHT22;3513;47.664;9.162;2023-03-04T00:11:26;2.40;99.90
6948;DHT22;3513;47.664;9.162;2023-03-04T00:13:51;2.40;99.90
6948;DHT22;3513;47.664;9.162;2023-03-04T00:16:17;2.30;99.90
6948;DHT22;3513;47.664;9.162;2023-03-04T00:18:42;2.30;99.90
6948;DHT22;3513;47.664;9.162;2023-03-04T00:21:08;2.30;99.90
6948;DHT22;3513;47.664;9.162;2023-03-04T00:23:34;2.30;99.90
6948;DHT22;3513;47.664;9.162;2023-03-04T00:25:59;2.80;99.90
6948;DHT22;3513;47.664;9.162;2023-03-04T00:28:25;2.20;99.90
6948;DHT22;3513;47.664;9.162;2023-03-04T00:30:50;2.20;99.90
6948;DHT22;3513;47.664;9.162;2023-03-04T00:33:16;2.20;99.90
6948;DHT22;3513;47.664;9.162;2023-03-04T00:35:41;2.10;99.90
6948;DHT22;3513;47.664;9.162;2023-03-04T00:38:07;2.10;99.90
6948;DHT22;3513;47.664;9.162;2023-03-04T00:40:33;2.00;99.90
6948;DHT22;3513;47.664;9.162;2023-03-04T00:42:59;1.90;99.90
6948;DHT22;3513;47.664;9.162;2023-03-04T00:45:24;1.80;99.90
6948;DHT22;3513;47.664;9.162;2023-03-04T00:47:50;1.80;99.90
6948;DHT22;3513;47.664;9.162;2023-03-04T00:50:15;1.70;99.90
6948;DHT22;3513;47.664;9.162;2023-03-04T00:52:41;1.70;99.90
6948;DHT22;3513;47.664;9.162;2023-03-04T00:55:07;1.70;99.90
6948;DHT22;3513;47.664;9.162;2023-03-04T00:57:33;1.60;99.90
6948;DHT22;3513;47.664;9.162;2023-03-04T00:59:59;1.50;99.90
6948;DHT22;3513;47.664;9.162;2023-03-04T01:02:25;1.50;99.90
6948;DHT22;3513;47.664;9.162;2023-03-04T01:04:51;1.40;99.90
6948;DHT22;3513;47.664;9.162;2023-03-04T01:07:17;1.40;99.90
6948;DHT22;3513;47.664;9.162;2023-03-04T01:09:42;1.30;99.90
6948;DHT22;3513;47.664;9.162;2023-03-04T01:12:08;1.30;99.90
6948;DHT22;3513;47.664;9.162;2023-03-04T01:14:34;1.30;99.90
6948;DHT22;3513;47.664;9.162;2023-03-04T01:17:00;1.30;99.90
6948;DHT22;3513;47.664;9.162;2023-03-04T01:19:25;1.30;99.90
6948;DHT22;3513;47.664;9.162;2023-03-04T01:21:51;1.30;99.90
6948;DHT22;3513;47.664;9.162;2023-03-04T01:24:17;2.00;99.90
6948;DHT22;3513;47.664;9.162;2023-03-04T01:26:42;1.40;99.90
6948;DHT22;3513;47.664;9.162;2023-03-04T01:29:08;1.50;99.90
6948;DHT22;3513;47.664;9.162;2023-03-04T01:31:34;1.50;99.90
6948;DHT22;3513;47.664;9.162;2023-03-04T01:34:00;1.40;99.90
6948;DHT22;3513;47.664;9.162;2023-03-04T01:36:25;1.40;99.90
6948;DHT22;3513;47.664;9.162;2023-03-04T01:38:51;1.30;99.90
6948;DHT22;3513;47.664;9.162;2023-03-04T01:41:19;1.20;99.90
6948;DHT22;3513;47.664;9.162;2023-03-04T01:43:46;1.10;99.90
6948;DHT22;3513;47.664;9.162;2023-03-04T01:46:12;1.10;99.90
6948;DHT22;3513;47.664;9.162;2023-03-04T01:48:42;1.10;99.90
6948;DHT22;3513;47.664;9.162;2023-03-04T01:51:13;1.10;99.90
6948;DHT22;3513;47.664;9.162;2023-03-04T01:53:39;1.10;99.90
6948;DHT22;3513;47.664;9.162;2023-03-04T01:56:19;1.10;99.90
6948;DHT22;3513;47.664;9.162;2023-03-04T01:59:39;1.10;99.90
6948;DHT22;3513;47.664;9.162;2023-03-04T02:02:00;1.00;99.90
6948;DHT22;3513;47.664;9.162;2023-03-04T02:04:28;1.00;99.90
6948;DHT22;3513;47.664;9.162;2023-03-04T02:06:56;1.00;99.90
6948;DHT22;3513;47.664;9.162;2023-03-04T02:09:22;1.00;99.90
6948;DHT22;3513;47.664;9.162;2023-03-04T02:11:49;0.90;99.90
6948;DHT22;3513;47.664;9.162;2023-03-04T02:14:15;0.80;99.90
6948;DHT22;3513;47.664;9.162;2023-03-04T02:16:42;0.80;99.90
6948;DHT22;3513;47.664;9.162;2023-03-04T02:21:59;0.80;99.90
6948;DHT22;3513;47.664;9.162;2023-03-04T02:24:30;0.70;99.90
6948;DHT22;3513;47.664;9.162;2023-03-04T02:26:59;0.70;99.90
6948;DHT22;3513;47.664;9.162;2023-03-04T02:29:25;0.70;99.90
6948;DHT22;3513;47.664;9.162;2023-03-04T02:31:53;0.60;99.90
6948;DHT22;3513;47.664;9.162;2023-03-04T02:34:22;0.60;99.90
6948;DHT22;3513;47.664;9.162;2023-03-04T02:36:51;0.60;99.90
6948;DHT22;3513;47.664;9.162;2023-03-04T02:41:50;0.50;99.90
6948;DHT22;3513;47.664;9.162;2023-03-04T02:44:28;0.50;99.90
6948;DHT22;3513;47.664;9.162;2023-03-04T02:46:54;0.50;99.90
6948;DHT22;3513;47.664;9.162;2023-03-04T02:49:21;0.70;99.90
6948;DHT22;3513;47.664;9.162;2023-03-04T02:51:52;0.50;99.90
6948;DHT22;3513;47.664;9.162;2023-03-04T02:54:20;0.50;99.90
6948;DHT22;3513;47.664;9.162;2023-03-04T02:56:47;0.40;99.90
6948;DHT22;3513;47.664;9.162;2023-03-04T02:59:13;0.40;99.90
6948;DHT22;3513;47.664;9.162;2023-03-04T03:01:39;0.30;99.90
6948;DHT22;3513;47.664;9.162;2023-03-04T03:04:04;0.30;99.90
6948;DHT22;3513;47.664;9.162;2023-03-04T03:06:30;0.30;99.90
6948;DHT22;3513;47.664;9.162;2023-03-04T03:08:56;0.30;99.90
6948;DHT22;3513;47.664;9.162;2023-03-04T03:11:21;0.30;99.90
6948;DHT22;3513;47.664;9.162;2023-03-04T03:13:47;0.30;99.90
6948;DHT22;3513;47.664;9.162;2023-03-04T03:16:12;0.30;99.90
6948;DHT22;3513;47.664;9.162;2023-03-04T03:18:38;0.20;99.90
6948;DHT22;3513;47.664;9.162;2023-03-04T03:21:04;0.20;99.90
6948;DHT22;3513;47.664;9.162;2023-03-04T03:23:30;0.20;99.90
6948;DHT22;3513;47.664;9.162;2023-03-04T03:25:55;0.20;99.90
6948;DHT22;3513;47.664;9.162;2023-03-04T03:28:21;0.20;99.90
6948;DHT22;3513;47.664;9.162;2023-03-04T03:30:47;0.20;99.90
6948;DHT22;3513;47.664;9.162;2023-03-04T03:33:12;0.10;99.90
6948;DHT22;3513;47.664;9.162;2023-03-04T03:35:38;0.00;99.90
6948;DHT22;3513;47.664;9.162;2023-03-04T03:38:03;0.00;99.90
6948;DHT22;3513;47.664;9.162;2023-03-04T03:40:29;0.00;99.90
6948;DHT22;3513;47.664;9.162;2023-03-04T03:42:54;0.10;99.90
6948;DHT22;3513;47.664;9.162;2023-03-04T03:45:20;0.10;99.90
6948;DHT22;3513;47.664;9.162;2023-03-04T03:47:46;0.10;99.90
6948;DHT22;3513;47.664;9.162;2023-03-04T03:50:11;0.10;99.90
6948;DHT22;3513;47.664;9.162;2023-03-04T03:52:37;0.20;99.90
6948;DHT22;3513;47.664;9.162;2023-03-04T03:55:03;0.20;99.90
6948;DHT22;3513;47.664;9.162;2023-03-04T03:57:29;0.10;99.90
6948;DHT22;3513;47.664;9.162;2023-03-04T03:59:55;0.20;99.90
6948;DHT22;3513;47.664;9.162;2023-03-04T04:02:20;0.20;99.90
6948;DHT22;3513;47.664;9.162;2023-03-04T04:04:47;0.30;99.90
6948;DHT22;3513;47.664;9.162;2023-03-04T04:07:12;0.30;99.90
6948;DHT22;3513;47.664;9.162;2023-03-04T04:09:38;0.40;99.90
6948;DHT22;3513;47.664;9.162;2023-03-04T04:12:05;0.30;99.90
6948;DHT22;3513;47.664;9.162;2023-03-04T04:14:31;0.10;99.90
6948;DHT22;3513;47.664;9.162;2023-03-04T04:16:57;0.10;99.90
6948;DHT22;3513;47.664;9.162;2023-03-04T04:19:22;0.00;99.90
6948;DHT22;3513;47.664;9.162;2023-03-04T04:21:48;0.00;99.90
6948;DHT22;3513;47.664;9.162;2023-03-04T04:24:14;0.00;99.90
6948;DHT22;3513;47.664;9.162;2023-03-04T04:26:40;0.00;99.90
6948;DHT22;3513;47.664;9.162;2023-03-04T04:29:06;-0.10;99.90
6948;DHT22;3513;47.664;9.162;2023-03-04T04:31:33;-0.10;99.90
6948;DHT22;3513;47.664;9.162;2023-03-04T04:33:58;-0.10;99.90
6948;DHT22;3513;47.664;9.162;2023-03-04T04:36:24;-0.10;99.90
6948;DHT22;3513;47.664;9.162;2023-03-04T04:38:49;-0.10;99.90
6948;DHT22;3513;47.664;9.162;2023-03-04T04:41:19;-0.10;99.90
6948;DHT22;3513;47.664;9.162;2023-03-04T04:43:45;-0.10;99.90
6948;DHT22;3513;47.664;9.162;2023-03-04T04:46:11;-0.10;99.90
6948;DHT22;3513;47.664;9.162;2023-03-04T04:48:38;-0.10;99.90
6948;DHT22;3513;47.664;9.162;2023-03-04T04:51:03;0.00;99.90
6948;DHT22;3513;47.664;9.162;2023-03-04T04:53:29;0.10;99.90
6948;DHT22;3513;47.664;9.162;2023-03-04T04:55:54;0.10;99.90
6948;DHT22;3513;47.664;9.162;2023-03-04T04:58:20;0.20;99.90
6948;DHT22;3513;47.664;9.162;2023-03-04T05:00:45;0.20;99.90
6948;DHT22;3513;47.664;9.162;2023-03-04T05:03:11;0.40;99.90
6948;DHT22;3513;47.664;9.162;2023-03-04T05:05:37;0.40;99.90
6948;DHT22;3513;47.664;9.162;2023-03-04T05:08:02;0.50;99.90
6948;DHT22;3513;47.664;9.162;2023-03-04T05:10:28;0.50;99.90
6948;DHT22;3513;47.664;9.162;2023-03-04T05:12:53;0.60;99.90
6948;DHT22;3513;47.664;9.162;2023-03-04T05:15:19;0.60;99.90
6948;DHT22;3513;47.664;9.162;2023-03-04T05:17:44;0.70;99.90
6948;DHT22;3513;47.664;9.162;2023-03-04T05:20:10;0.70;99.90
6948;DHT22;3513;47.664;9.162;2023-03-04T05:22:36;0.80;99.90
6948;DHT22;3513;47.664;9.162;2023-03-04T05:25:02;0.90;99.90
6948;DHT22;3513;47.664;9.162;2023-03-04T05:27:27;0.90;99.90
6948;DHT22;3513;47.664;9.162;2023-03-04T05:29:53;0.90;99.90
6948;DHT22;3513;47.664;9.162;2023-03-04T05:32:20;1.00;99.90
6948;DHT22;3513;47.664;9.162;2023-03-04T05:34:45;1.10;99.90
6948;DHT22;3513;47.664;9.162;2023-03-04T05:37:11;1.10;99.90
6948;DHT22;3513;47.664;9.162;2023-03-04T05:39:36;1.20;99.90
6948;DHT22;3513;47.664;9.162;2023-03-04T05:42:02;1.20;99.90
6948;DHT22;3513;47.664;9.162;2023-03-04T05:44:28;1.30;99.90
6948;DHT22;3513;47.664;9.162;2023-03-04T05:46:53;1.30;99.90
6948;DHT22;3513;47.664;9.162;2023-03-04T05:49:19;1.30;99.90
6948;DHT22;3513;47.664;9.162;2023-03-04T05:51:44;1.30;99.90
6948;DHT22;3513;47.664;9.162;2023-03-04T05:54:10;1.20;99.90
6948;DHT22;3513;47.664;9.162;2023-03-04T05:56:35;1.20;99.90
6948;DHT22;3513;47.664;9.162;2023-03-04T05:59:01;1.20;99.90
6948;DHT22;3513;47.664;9.162;2023-03-04T06:01:26;1.20;99.90
6948;DHT22;3513;47.664;9.162;2023-03-04T06:03:52;1.30;99.90
6948;DHT22;3513;47.664;9.162;2023-03-04T06:06:18;1.40;99.90
6948;DHT22;3513;47.664;9.162;2023-03-04T06:08:43;1.40;99.90
6948;DHT22;3513;47.664;9.162;2023-03-04T06:11:09;1.50;99.90
6948;DHT22;3513;47.664;9.162;2023-03-04T06:13:34;1.50;99.90
6948;DHT22;3513;47.664;9.162;2023-03-04T06:16:00;1.60;99.90
6948;DHT22;3513;47.664;9.162;2023-03-04T06:18:27;1.60;99.90
6948;DHT22;3513;47.664;9.162;2023-03-04T06:20:57;1.70;99.90
6948;DHT22;3513;47.664;9.162;2023-03-04T06:23:24;1.60;99.90
6948;DHT22;3513;47.664;9.162;2023-03-04T06:25:54;1.60;99.90
6948;DHT22;3513;47.664;9.162;2023-03-04T06:28:20;1.60;99.90
6948;DHT22;3513;47.664;9.162;2023-03-04T06:30:46;1.60;99.90
6948;DHT22;3513;47.664;9.162;2023-03-04T06:33:11;1.70;99.90
6948;DHT22;3513;47.664;9.162;2023-03-04T06:35:37;1.70;99.90
6948;DHT22;3513;47.664;9.162;2023-03-04T06:38:03;1.70;99.90
6948;DHT22;3513;47.664;9.162;2023-03-04T06:40:28;1.70;99.90
6948;DHT22;3513;47.664;9.162;2023-03-04T06:42:54;1.70;99.90
6948;DHT22;3513;47.664;9.162;2023-03-04T06:45:19;1.80;99.90
6948;DHT22;3513;47.664;9.162;2023-03-04T06:47:45;1.80;99.90
6948;DHT22;3513;47.664;9.162;2023-03-04T06:50:12;2.00;99.90
6948;DHT22;3513;47.664;9.162;2023-03-04T06:52:38;2.00;99.90
6948;DHT22;3513;47.664;9.162;2023-03-04T06:55:05;2.00;99.90
6948;DHT22;3513;47.664;9.162;2023-03-04T06:57:31;2.00;99.90
6948;DHT22;3513;47.664;9.162;2023-03-04T06:59:56;1.90;99.90
6948;DHT22;3513;47.664;9.162;2023-03-04T07:02:22;1.90;99.90
6948;DHT22;3513;47.664;9.162;2023-03-04T07:04:48;1.90;99.90
6948;DHT22;3513;47.664;9.162;2023-03-04T07:07:13;1.90;99.90
6948;DHT22;3513;47.664;9.162;2023-03-04T07:09:39;2.00;99.90
6948;DHT22;3513;47.664;9.162;2023-03-04T07:12:05;1.90;99.90
6948;DHT22;3513;47.664;9.162;2023-03-04T07:14:30;1.90;99.90
6948;DHT22;3513;47.664;9.162;2023-03-04T07:16:56;2.00;99.90
6948;DHT22;3513;47.664;9.162;2023-03-04T07:19:22;2.00;99.90
6948;DHT22;3513;47.664;9.162;2023-03-04T07:21:47;2.00;99.90
6948;DHT22;3513;47.664;9.162;2023-03-04T07:24:13;2.10;99.90
6948;DHT22;3513;47.664;9.162;2023-03-04T07:26:39;2.10;99.90
6948;DHT22;3513;47.664;9.162;2023-03-04T07:29:04;2.10;99.90
6948;DHT22;3513;47.664;9.162;2023-03-04T07:31:32;2.00;99.90
6948;DHT22;3513;47.664;9.162;2023-03-04T07:34:00;2.00;99.90
6948;DHT22;3513;47.664;9.162;2023-03-04T07:36:26;2.10;99.90
6948;DHT22;3513;47.664;9.162;2023-03-04T07:38:52;2.20;99.90
6948;DHT22;3513;47.664;9.162;2023-03-04T07:41:22;2.20;99.90
6948;DHT22;3513;47.664;9.162;2023-03-04T07:43:48;2.30;99.90
6948;DHT22;3513;47.664;9.162;2023-03-04T07:46:15;2.30;99.90
6948;DHT22;3513;47.664;9.162;2023-03-04T07:48:40;2.30;99.90
6948;DHT22;3513;47.664;9.162;2023-03-04T07:51:12;2.30;99.90
6948;DHT22;3513;47.664;9.162;2023-03-04T07:53:40;2.30;99.90
6948;DHT22;3513;47.664;9.162;2023-03-04T07:56:07;2.20;99.90
6948;DHT22;3513;47.664;9.162;2023-03-04T07:58:33;2.30;99.90
6948;DHT22;3513;47.664;9.162;2023-03-04T08:00:58;2.30;99.90
6948;DHT22;3513;47.664;9.162;2023-03-04T08:03:24;2.30;99.90
6948;DHT22;3513;47.664;9.162;2023-03-04T08:05:50;2.30;99.90
6948;DHT22;3513;47.664;9.162;2023-03-04T08:08:16;2.20;99.90
6948;DHT22;3513;47.664;9.162;2023-03-04T08:10:42;2.20;99.90
6948;DHT22;3513;47.664;9.162;2023-03-04T08:13:08;2.30;99.90
6948;DHT22;3513;47.664;9.162;2023-03-04T08:15:39;2.40;99.90
6948;DHT22;3513;47.664;9.162;2023-03-04T08:18:04;2.50;99.90
6948;DHT22;3513;47.664;9.162;2023-03-04T08:20:30;2.40;99.90
6948;DHT22;3513;47.664;9.162;2023-03-04T08:22:55;2.50;99.90
6948;DHT22;3513;47.664;9.162;2023-03-04T08:25:21;2.60;99.90
6948;DHT22;3513;47.664;9.162;2023-03-04T08:27:47;2.60;99.90
6948;DHT22;3513;47.664;9.162;2023-03-04T08:30:12;2.70;99.90
6948;DHT22;3513;47.664;9.162;2023-03-04T08:32:38;2.70;99.90
6948;DHT22;3513;47.664;9.162;2023-03-04T08:35:04;2.70;99.90
6948;DHT22;3513;47.664;9.162;2023-03-04T08:37:30;2.70;99.90
6948;DHT22;3513;47.664;9.162;2023-03-04T08:39:55;2.70;99.90
6948;DHT22;3513;47.664;9.162;2023-03-04T08:42:21;2.80;99.90
6948;DHT22;3513;47.664;9.162;2023-03-04T08:44:47;2.90;99.90
6948;DHT22;3513;47.664;9.162;2023-03-04T08:47:12;3.00;99.90
6948;DHT22;3513;47.664;9.162;2023-03-04T08:49:38;3.00;99.90
6948;DHT22;3513;47.664;9.162;2023-03-04T08:52:03;3.00;99.90
6948;DHT22;3513;47.664;9.162;2023-03-04T08:54:29;2.90;99.90
6948;DHT22;3513;47.664;9.162;2023-03-04T08:56:54;3.00;99.90
6948;DHT22;3513;47.664;9.162;2023-03-04T08:59:20;3.10;99.90
6948;DHT22;3513;47.664;9.162;2023-03-04T09:01:46;3.20;99.90
6948;DHT22;3513;47.664;9.162;2023-03-04T09:04:11;3.30;99.90
6948;DHT22;3513;47.664;9.162;2023-03-04T09:06:37;3.30;99.90
6948;DHT22;3513;47.664;9.162;2023-03-04T09:09:03;3.40;99.90
6948;DHT22;3513;47.664;9.162;2023-03-04T09:11:29;3.30;99.90
6948;DHT22;3513;47.664;9.162;2023-03-04T09:13:55;3.40;99.90
6948;DHT22;3513;47.664;9.162;2023-03-04T09:16:21;3.40;99.90
6948;DHT22;3513;47.664;9.162;2023-03-04T09:18:47;3.50;99.90
6948;DHT22;3513;47.664;9.162;2023-03-04T09:21:13;3.50;99.90
6948;DHT22;3513;47.664;9.162;2023-03-04T09:23:38;3.60;99.90
6948;DHT22;3513;47.664;9.162;2023-03-04T09:26:25;3.70;99.90
6948;DHT22;3513;47.664;9.162;2023-03-04T09:28:51;3.80;99.90
6948;DHT22;3513;47.664;9.162;2023-03-04T09:31:18;3.80;99.90
6948;DHT22;3513;47.664;9.162;2023-03-04T09:33:44;3.90;99.90
6948;DHT22;3513;47.664;9.162;2023-03-04T09:36:10;4.10;99.90
6948;DHT22;3513;47.664;9.162;2023-03-04T09:38:36;4.30;99.90
6948;DHT22;3513;47.664;9.162;2023-03-04T09:41:20;4.40;99.90
6948;DHT22;3513;47.664;9.162;2023-03-04T09:43:47;4.40;99.90
6948;DHT22;3513;47.664;9.162;2023-03-04T09:46:31;4.60;99.90
6948;DHT22;3513;47.664;9.162;2023-03-04T09:48:57;4.60;99.90
6948;DHT22;3513;47.664;9.162;2023-03-04T09:51:44;4.40;99.90
6948;DHT22;3513;47.664;9.162;2023-03-04T09:56:58;4.50;99.90
6948;DHT22;3513;47.664;9.162;2023-03-04T09:59:30;4.60;99.90
6948;DHT22;3513;47.664;9.162;2023-03-04T10:02:06;4.70;99.90
6948;DHT22;3513;47.664;9.162;2023-03-04T10:04:49;4.70;99.90
6948;DHT22;3513;47.664;9.162;2023-03-04T10:07:23;4.90;99.90
6948;DHT22;3513;47.664;9.162;2023-03-04T10:10:02;5.00;99.90
6948;DHT22;3513;47.664;9.162;2023-03-04T10:12:29;5.10;99.90
6948;DHT22;3513;47.664;9.162;2023-03-04T10:15:07;5.30;99.90
6948;DHT22;3513;47.664;9.162;2023-03-04T10:17:42;5.00;99.90
6948;DHT22;3513;47.664;9.162;2023-03-04T10:20:21;5.10;99.90
6948;DHT22;3513;47.664;9.162;2023-03-04T10:22:55;5.20;99.90
6948;DHT22;3513;47.664;9.162;2023-03-04T10:25:30;5.40;99.90
6948;DHT22;3513;47.664;9.162;2023-03-04T10:28:04;5.60;99.90
6948;DHT22;3513;47.664;9.162;2023-03-04T10:33:20;6.00;99.90
6948;DHT22;3513;47.664;9.162;2023-03-04T10:38:34;6.20;99.90
6948;DHT22;3513;47.664;9.162;2023-03-04T10:41:00;6.40;99.90
6948;DHT22;3513;47.664;9.162;2023-03-04T10:43:26;6.60;99.90
6948;DHT22;3513;47.664;9.162;2023-03-04T10:45:56;6.70;99.90
6948;DHT22;3513;47.664;9.162;2023-03-04T10:48:30;7.00;99.90
6948;DHT22;3513;47.664;9.162;2023-03-04T10:51:21;7.10;99.90
6948;DHT22;3513;47.664;9.162;2023-03-04T10:53:49;7.20;99.40
6948;DHT22;3513;47.664;9.162;2023-03-04T10:56:35;7.30;99.10
6948;DHT22;3513;47.664;9.162;2023-03-04T10:59:31;7.40;98.90
6948;DHT22;3513;47.664;9.162;2023-03-04T11:02:05;7.50;98.80
6948;DHT22;3513;47.664;9.162;2023-03-04T11:04:35;7.60;98.40
6948;DHT22;3513;47.664;9.162;2023-03-04T11:07:01;7.70;98.00
6948;DHT22;3513;47.664;9.162;2023-03-04T11:09:28;7.70;98.20
6948;DHT22;3513;47.664;9.162;2023-03-04T11:11:58;7.80;98.20
6948;DHT22;3513;47.664;9.162;2023-03-04T11:17:00;7.80;97.30
6948;DHT22;3513;47.664;9.162;2023-03-04T11:19:34;7.80;97.60
6948;DHT22;3513;47.664;9.162;2023-03-04T11:22:03;7.90;97.70
6948;DHT22;3513;47.664;9.162;2023-03-04T11:24:33;8.00;97.70
6948;DHT22;3513;47.664;9.162;2023-03-04T11:27:20;8.00;97.00
6948;DHT22;3513;47.664;9.162;2023-03-04T11:30:35;8.10;96.90
6948;DHT22;3513;47.664;9.162;2023-03-04T11:32:45;8.10;96.60
6948;DHT22;3513;47.664;9.162;2023-03-04T11:40:43;8.40;96.00
6948;DHT22;3513;47.664;9.162;2023-03-04T11:43:40;8.40;95.90
6948;DHT22;3513;47.664;9.162;2023-03-04T11:51:19;8.60;95.60
6948;DHT22;3513;47.664;9.162;2023-03-04T12:04:16;8.70;95.10
6948;DHT22;3513;47.664;9.162;2023-03-04T12:10:05;8.90;95.30
6948;DHT22;3513;47.664;9.162;2023-03-04T12:15:24;8.90;94.50
6948;DHT22;3513;47.664;9.162;2023-03-04T12:40:29;9.80;93.60
6948;DHT22;3513;47.664;9.162;2023-03-04T12:43:19;9.90;93.30
6948;DHT22;3513;47.664;9.162;2023-03-04T12:46:03;10.00;92.30
6948;DHT22;3513;47.664;9.162;2023-03-04T12:48:35;10.20;92.10
6948;DHT22;3513;47.664;9.162;2023-03-04T12:54:05;10.60;91.20
6948;DHT22;3513;47.664;9.162;2023-03-04T12:56:51;10.80;91.10
6948;DHT22;3513;47.664;9.162;2023-03-04T12:59:20;11.00;90.80
6948;DHT22;3513;47.664;9.162;2023-03-04T13:04:56;11.60;90.00
6948;DHT22;3513;47.664;9.162;2023-03-04T13:07:42;11.80;88.80
6948;DHT22;3513;47.664;9.162;2023-03-04T13:10:13;12.20;87.20
6948;DHT22;3513;47.664;9.162;2023-03-04T13:12:52;12.50;83.80
6948;DHT22;3513;47.664;9.162;2023-03-04T13:18:34;13.00;81.30
6948;DHT22;3513;47.664;9.162;2023-03-04T13:20:40;13.10;79.90
6948;DHT22;3513;47.664;9.162;2023-03-04T13:25:46;13.50;77.80
6948;DHT22;3513;47.664;9.162;2023-03-04T13:28:15;13.80;77.10
6948;DHT22;3513;47.664;9.162;2023-03-04T13:31:05;14.10;75.40
6948;DHT22;3513;47.664;9.162;2023-03-04T13:36:04;14.80;71.30
6948;DHT22;3513;47.664;9.162;2023-03-04T13:38:34;15.00;70.00
6948;DHT22;3513;47.664;9.162;2023-03-04T13:43:48;15.00;68.60
6948;DHT22;3513;47.664;9.162;2023-03-04T13:49:00;15.40;66.50
6948;DHT22;3513;47.664;9.162;2023-03-04T13:51:41;15.70;65.80
6948;DHT22;3513;47.664;9.162;2023-03-04T13:56:48;16.20;61.20
6948;DHT22;3513;47.664;9.162;2023-03-04T13:59:47;16.30;61.10
6948;DHT22;3513;47.664;9.162;2023-03-04T14:02:17;16.50;60.40
6948;DHT22;3513;47.664;9.162;2023-03-04T14:05:05;16.80;60.00
6948;DHT22;3513;47.664;9.162;2023-03-04T14:07:33;17.10;58.90
6948;DHT22;3513;47.664;9.162;2023-03-04T14:12:48;17.40;57.80
6948;DHT22;3513;47.664;9.162;2023-03-04T14:15:26;17.60;57.20
6948;DHT22;3513;47.664;9.162;2023-03-04T14:17:57;17.80;56.50
6948;DHT22;3513;47.664;9.162;2023-03-04T14:22:54;18.00;55.50
6948;DHT22;3513;47.664;9.162;2023-03-04T14:25:34;18.10;55.10
6948;DHT22;3513;47.664;9.162;2023-03-04T14:28:12;18.20;54.70
6948;DHT22;3513;47.664;9.162;2023-03-04T14:30:39;18.30;54.60
6948;DHT22;3513;47.664;9.162;2023-03-04T14:33:07;18.30;54.70
6948;DHT22;3513;47.664;9.162;2023-03-04T14:35:33;18.30;54.60
6948;DHT22;3513;47.664;9.162;2023-03-04T14:38:03;18.50;54.10
6948;DHT22;3513;47.664;9.162;2023-03-04T14:40:39;18.60;53.60
6948;DHT22;3513;47.664;9.162;2023-03-04T14:43:12;18.70;52.80
6948;DHT22;3513;47.664;9.162;2023-03-04T14:45:39;19.00;52.50
6948;DHT22;3513;47.664;9.162;2023-03-04T14:48:07;19.10;52.10
6948;DHT22;3513;47.664;9.162;2023-03-04T14:50:33;19.30;51.50
6948;DHT22;3513;47.664;9.162;2023-03-04T14:53:15;19.50;51.60
6948;DHT22;3513;47.664;9.162;2023-03-04T14:56:01;19.60;50.50
6948;DHT22;3513;47.664;9.162;2023-03-04T14:58:31;19.70;49.70
6948;DHT22;3513;47.664;9.162;2023-03-04T15:01:14;19.70;49.30
6948;DHT22;3513;47.664;9.162;2023-03-04T15:03:43;19.80;48.90
6948;DHT22;3513;47.664;9.162;2023-03-04T15:06:23;19.80;48.60
6948;DHT22;3513;47.664;9.162;2023-03-04T15:09:03;19.80;48.70
6948;DHT22;3513;47.664;9.162;2023-03-04T15:11:59;19.90;48.50
6948;DHT22;3513;47.664;9.162;2023-03-04T15:20:19;19.70;47.90
6948;DHT22;3513;47.664;9.162;2023-03-04T15:25:14;19.50;48.30
6948;DHT22;3513;47.664;9.162;2023-03-04T15:27:41;19.40;48.60
6948;DHT22;3513;47.664;9.162;2023-03-04T15:30:18;19.30;48.50
6948;DHT22;3513;47.664;9.162;2023-03-04T15:32:46;19.30;48.60
6948;DHT22;3513;47.664;9.162;2023-03-04T15:35:12;19.30;48.70
6948;DHT22;3513;47.664;9.162;2023-03-04T15:37:38;19.20;48.60
6948;DHT22;3513;47.664;9.162;2023-03-04T15:40:28;19.20;48.20
6948;DHT22;3513;47.664;9.162;2023-03-04T15:42:52;19.10;48.10
6948;DHT22;3513;47.664;9.162;2023-03-04T15:45:24;19.00;48.30
6948;DHT22;3513;47.664;9.162;2023-03-04T15:47:50;18.90;48.60
6948;DHT22;3513;47.664;9.162;2023-03-04T15:50:17;18.90;48.20
6948;DHT22;3513;47.664;9.162;2023-03-04T15:52:43;18.80;48.50
6948;DHT22;3513;47.664;9.162;2023-03-04T15:55:14;18.70;48.80
6948;DHT22;3513;47.664;9.162;2023-03-04T15:57:41;18.50;49.10
6948;DHT22;3513;47.664;9.162;2023-03-04T16:00:09;18.30;49.50
6948;DHT22;3513;47.664;9.162;2023-03-04T16:02:35;18.00;50.10
6948;DHT22;3513;47.664;9.162;2023-03-04T16:05:00;17.70;50.60
6948;DHT22;3513;47.664;9.162;2023-03-04T16:07:28;17.40;51.10
6948;DHT22;3513;47.664;9.162;2023-03-04T16:09:58;17.00;51.90
6948;DHT22;3513;47.664;9.162;2023-03-04T16:12:26;16.70;52.80
6948;DHT22;3513;47.664;9.162;2023-03-04T16:14:52;16.40;53.10
6948;DHT22;3513;47.664;9.162;2023-03-04T16:17:18;16.00;53.70
6948;DHT22;3513;47.664;9.162;2023-03-04T16:19:44;15.80;54.00
6948;DHT22;3513;47.664;9.162;2023-03-04T16:22:14;15.60;54.60
6948;DHT22;3513;47.664;9.162;2023-03-04T16:24:42;15.40;55.40
6948;DHT22;3513;47.664;9.162;2023-03-04T16:27:13;15.10;56.10
6948;DHT22;3513;47.664;9.162;2023-03-04T16:29:39;14.80;56.70
6948;DHT22;3513;47.664;9.162;2023-03-04T16:32:05;14.50;57.00
6948;DHT22;3513;47.664;9.162;2023-03-04T16:34:31;14.20;57.30
6948;DHT22;3513;47.664;9.162;2023-03-04T16:36:57;14.00;58.00
6948;DHT22;3513;47.664;9.162;2023-03-04T16:39:24;13.70;58.90
6948;DHT22;3513;47.664;9.162;2023-03-04T16:41:52;13.50;59.80
6948;DHT22;3513;47.664;9.162;2023-03-04T16:44:19;13.20;61.00
6948;DHT22;3513;47.664;9.162;2023-03-04T16:46:45;12.90;62.20
6948;DHT22;3513;47.664;9.162;2023-03-04T16:49:10;12.60;63.30
6948;DHT22;3513;47.664;9.162;2023-03-04T16:51:41;12.30;64.70
6948;DHT22;3513;47.664;9.162;2023-03-04T16:54:23;11.90;66.10
6948;DHT22;3513;47.664;9.162;2023-03-04T16:56:49;11.50;68.00
6948;DHT22;3513;47.664;9.162;2023-03-04T16:59:15;10.90;69.50
6948;DHT22;3513;47.664;9.162;2023-03-04T17:01:42;10.60;71.40
6948;DHT22;3513;47.664;9.162;2023-03-04T17:04:07;10.40;72.90
6948;DHT22;3513;47.664;9.162;2023-03-04T17:06:33;10.10;74.50
6948;DHT22;3513;47.664;9.162;2023-03-04T17:09:03;9.90;75.80
6948;DHT22;3513;47.664;9.162;2023-03-04T17:11:29;9.70;77.10
6948;DHT22;3513;47.664;9.162;2023-03-04T17:13:55;9.50;78.10
6948;DHT22;3513;47.664;9.162;2023-03-04T17:16:20;9.30;79.20
6948;DHT22;3513;47.664;9.162;2023-03-04T17:18:47;9.20;80.40
6948;DHT22;3513;47.664;9.162;2023-03-04T17:21:19;9.00;81.30
6948;DHT22;3513;47.664;9.162;2023-03-04T17:23:44;8.90;82.40
6948;DHT22;3513;47.664;9.162;2023-03-04T17:26:10;8.70;83.10
6948;DHT22;3513;47.664;9.162;2023-03-04T17:28:36;8.60;83.70
6948;DHT22;3513;47.664;9.162;2023-03-04T17:31:09;8.50;84.80
6948;DHT22;3513;47.664;9.162;2023-03-04T17:33:35;8.40;85.00
6948;DHT22;3513;47.664;9.162;2023-03-04T17:36:00;8.30;85.50
6948;DHT22;3513;47.664;9.162;2023-03-04T17:38:26;8.20;86.00
6948;DHT22;3513;47.664;9.162;2023-03-04T17:40:52;8.00;86.40
6948;DHT22;3513;47.664;9.162;2023-03-04T17:43:17;8.00;86.70
6948;DHT22;3513;47.664;9.162;2023-03-04T17:45:43;7.90;86.70
6948;DHT22;3513;47.664;9.162;2023-03-04T17:48:10;7.80;86.80
6948;DHT22;3513;47.664;9.162;2023-03-04T17:50:46;7.70;86.80
6948;DHT22;3513;47.664;9.162;2023-03-04T17:53:12;7.60;86.30
6948;DHT22;3513;47.664;9.162;2023-03-04T17:55:37;7.50;86.80
6948;DHT22;3513;47.664;9.162;2023-03-04T17:58:03;7.40;87.40
6948;DHT22;3513;47.664;9.162;2023-03-04T18:00:29;7.40;88.20
6948;DHT22;3513;47.664;9.162;2023-03-04T18:02:54;7.40;88.50
6948;DHT22;3513;47.664;9.162;2023-03-04T18:05:20;7.40;88.90